Time;durP1;ratioP1;P1;durP2;ratioP2;P2;SDS_P1;SDS_P2;PMS_P1;PMS_P2;Temp;Humidity;BMP_temperature;BMP_pressure;BME280_temperature;BME280_humidity;BME280_pressure;Samples;Min_cycle;Max_cycle;Signal;HPM_P1;HPM_P2
2021/06/12 00:00:31;;;;;;;0.50;0.47;;;21.90;94.80;;;;;;4415375;32;20066;-56
2021/06/12 00:02:57;;;;;;;0.70;0.60;;;21.80;95.10;;;;;;4415791;32;20070;-59
2021/06/12 00:05:24;;;;;;;0.35;0.35;;;21.70;95.20;;;;;;4401747;32;20061;-57
2021/06/12 00:07:49;;;;;;;3.75;1.30;;;21.70;95.00;;;;;;4401981;32;20146;-55
2021/06/12 00:10:19;;;;;;;0.65;0.50;;;21.70;95.20;;;;;;4400628;32;20125;-55
2021/06/12 00:12:45;;;;;;;0.70;0.70;;;21.70;95.20;;;;;;4414807;32;20120;-57
2021/06/12 00:15:12;;;;;;;1.05;0.60;;;21.70;95.30;;;;;;4415243;32;20061;-55
2021/06/12 00:17:38;;;;;;;0.40;0.40;;;21.60;95.40;;;;;;4430428;32;20569;-56
2021/06/12 00:20:07;;;;;;;0.40;0.40;;;21.70;95.50;;;;;;4430165;32;20119;-55
2021/06/12 00:22:32;;;;;;;0.30;0.30;;;21.70;95.50;;;;;;4423971;32;20066;-56
2021/06/12 00:24:58;;;;;;;0.68;0.68;;;21.60;95.60;;;;;;4430462;32;20089;-55
2021/06/12 00:27:23;;;;;;;1.05;0.98;;;21.60;95.60;;;;;;4429816;32;20506;-55
2021/06/12 00:29:49;;;;;;;3.05;1.45;;;21.60;95.70;;;;;;4430691;32;20136;-57
2021/06/12 00:32:15;;;;;;;0.68;0.68;;;21.60;95.90;;;;;;4429032;32;20057;-55
2021/06/12 00:34:40;;;;;;;0.43;0.43;;;21.60;96.00;;;;;;4389085;32;20058;-57
2021/06/12 00:37:06;;;;;;;1.98;0.57;;;21.50;96.10;;;;;;4416151;32;20065;-56
2021/06/12 00:39:33;;;;;;;0.20;0.20;;;21.40;96.40;;;;;;4413645;32;20534;-55
2021/06/12 00:41:58;;;;;;;0.73;0.73;;;21.50;96.40;;;;;;4389375;32;20058;-55
2021/06/12 00:44:24;;;;;;;1.55;0.62;;;21.50;96.30;;;;;;4414788;32;20081;-55
2021/06/12 00:46:49;;;;;;;0.45;0.45;;;21.50;96.40;;;;;;4414940;32;20061;-57
2021/06/12 00:49:15;;;;;;;0.88;0.65;;;21.40;96.40;;;;;;4415156;32;20065;-57
2021/06/12 00:51:40;;;;;;;0.57;0.57;;;21.40;96.50;;;;;;4415122;32;20086;-58
2021/06/12 00:54:06;;;;;;;0.40;0.40;;;21.30;96.90;;;;;;4415123;32;20093;-54
2021/06/12 00:56:31;;;;;;;1.85;0.55;;;21.40;97.00;;;;;;4400720;32;20049;-58
2021/06/12 00:58:57;;;;;;;0.57;0.50;;;21.40;96.90;;;;;;4414666;32;20061;-55
2021/06/12 01:01:22;;;;;;;3.53;0.30;;;21.50;97.10;;;;;;4413596;32;20062;-54
2021/06/12 01:03:48;;;;;;;0.55;0.55;;;21.40;97.20;;;;;;4430529;32;20089;-56
2021/06/12 01:06:17;;;;;;;0.60;0.60;;;21.40;97.00;;;;;;4415594;32;20086;-54
2021/06/12 01:08:43;;;;;;;0.90;0.73;;;21.40;97.10;;;;;;4429717;32;20085;-56
2021/06/12 01:11:10;;;;;;;8.13;0.70;;;21.50;97.30;;;;;;4416030;32;20069;-56
2021/06/12 01:14:02;;;;;;;1.77;0.90;;;21.50;97.30;;;;;;4411008;32;20094;-56
2021/06/12 01:16:34;;;;;;;0.50;0.50;;;21.40;97.50;;;;;;4403902;32;20459;-54
2021/06/12 01:19:11;;;;;;;0.95;0.85;;;21.40;97.30;;;;;;4400177;32;20070;-55
2021/06/12 01:21:43;;;;;;;0.45;0.43;;;21.40;97.30;;;;;;4414737;32;20078;-55
2021/06/12 01:24:48;;;;;;;0.30;0.30;;;21.40;96.90;;;;;;4414325;32;20073;-58
2021/06/12 01:27:25;;;;;;;0.60;0.60;;;21.50;97.30;;;;;;4394709;32;20471;-55
2021/06/12 01:30:13;;;;;;;0.60;0.60;;;21.50;97.00;;;;;;4414056;32;20073;-56
2021/06/12 01:32:45;;;;;;;0.30;0.30;;;21.50;97.10;;;;;;4406861;32;20065;-58
2021/06/12 01:35:18;;;;;;;0.60;0.60;;;21.60;97.00;;;;;;4415352;32;20436;-58
2021/06/12 01:37:46;;;;;;;0.45;0.45;;;21.60;97.00;;;;;;4429140;32;20130;-56
2021/06/12 01:40:13;;;;;;;0.40;0.40;;;21.60;97.10;;;;;;4429638;32;20065;-55
2021/06/12 01:42:43;;;;;;;0.37;0.32;;;21.50;97.30;;;;;;4403132;32;20069;-55
2021/06/12 01:45:09;;;;;;;0.45;0.45;;;21.50;97.40;;;;;;4402948;32;20077;-57
2021/06/12 01:47:34;;;;;;;0.40;0.40;;;21.50;97.60;;;;;;4430092;32;20495;-55
2021/06/12 01:50:03;;;;;;;0.90;0.70;;;21.50;97.70;;;;;;4403167;32;20081;-55
2021/06/12 01:52:31;;;;;;;0.77;0.73;;;21.50;97.90;;;;;;4430473;32;20107;-56
2021/06/12 01:54:57;;;;;;;1.37;0.82;;;21.40;98.20;;;;;;4429541;32;20128;-57
2021/06/12 01:57:24;;;;;;;0.45;0.45;;;21.40;98.20;;;;;;4429787;32;20081;-55
2021/06/12 01:59:51;;;;;;;4.35;0.65;;;21.40;98.40;;;;;;4429437;32;20078;-55
2021/06/12 02:02:18;;;;;;;1.00;0.60;;;21.30;98.50;;;;;;4428334;32;20070;-58
2021/06/12 02:04:45;;;;;;;1.08;0.68;;;21.30;98.70;;;;;;4429084;32;20079;-55
2021/06/12 02:07:12;;;;;;;1.17;0.88;;;21.20;99.10;;;;;;4415031;32;20534;-55
2021/06/12 02:09:40;;;;;;;0.60;0.60;;;21.20;99.70;;;;;;4427970;32;20069;-56
2021/06/12 02:12:07;;;;;;;0.70;0.62;;;21.20;99.90;;;;;;4430110;32;20109;-55
2021/06/12 02:14:33;;;;;;;0.88;0.60;;;21.20;99.90;;;;;;4423207;32;20078;-55
2021/06/12 02:17:00;;;;;;;2.55;1.10;;;21.30;99.90;;;;;;4415712;32;20112;-55
2021/06/12 02:19:26;;;;;;;0.73;0.50;;;21.30;99.90;;;;;;4429865;32;20077;-55
2021/06/12 02:21:52;;;;;;;1.90;0.93;;;21.30;99.90;;;;;;4415041;32;20077;-58
2021/06/12 02:24:18;;;;;;;2.67;1.37;;;21.30;99.90;;;;;;4429220;32;20077;-56
2021/06/12 02:26:48;;;;;;;0.60;0.60;;;21.30;99.90;;;;;;4429320;32;20553;-55
2021/06/12 02:29:15;;;;;;;0.75;0.60;;;21.40;99.90;;;;;;4429062;32;20126;-55
2021/06/12 02:31:45;;;;;;;1.05;0.70;;;21.30;99.90;;;;;;4414074;32;20069;-54
2021/06/12 02:34:11;;;;;;;0.47;0.43;;;21.30;99.90;;;;;;4401673;32;20066;-58
2021/06/12 02:36:37;;;;;;;0.47;0.47;;;21.40;99.90;;;;;;4388466;32;20073;-59
2021/06/12 02:39:05;;;;;;;1.02;0.93;;;21.40;99.90;;;;;;4416480;32;20078;-56
2021/06/12 02:41:31;;;;;;;0.75;0.65;;;21.40;99.90;;;;;;4401807;32;20061;-55
2021/06/12 02:43:56;;;;;;;0.60;0.60;;;21.30;99.90;;;;;;4401365;32;20086;-55
2021/06/12 02:46:28;;;;;;;0.60;0.60;;;21.30;99.90;;;;;;4416823;32;20061;-56
2021/06/12 02:48:59;;;;;;;0.30;0.30;;;21.20;99.90;;;;;;4417106;32;20070;-58
2021/06/12 02:51:25;;;;;;;0.73;0.60;;;21.20;99.90;;;;;;4416481;32;20077;-58
2021/06/12 02:53:52;;;;;;;0.37;0.37;;;21.20;99.90;;;;;;4416636;32;20078;-57
2021/06/12 02:56:19;;;;;;;0.60;0.60;;;21.30;99.90;;;;;;4415692;32;20142;-55
2021/06/12 02:58:46;;;;;;;0.70;0.70;;;21.20;99.90;;;;;;4401362;32;20077;-59
2021/06/12 03:01:14;;;;;;;0.40;0.40;;;21.30;99.90;;;;;;4403277;32;20066;-59
2021/06/12 03:03:40;;;;;;;4.43;0.70;;;21.20;99.90;;;;;;4416553;32;20498;-57
2021/06/12 03:06:08;;;;;;;1.00;0.62;;;21.20;99.90;;;;;;4416651;32;20062;-57
2021/06/12 03:08:38;;;;;;;1.08;0.98;;;21.20;99.90;;;;;;4416173;32;20069;-56
2021/06/12 03:11:08;;;;;;;15.05;1.20;;;21.20;99.90;;;;;;4402904;32;20069;-56
2021/06/12 03:13:37;;;;;;;2.13;0.70;;;21.00;99.90;;;;;;4409962;32;20424;-56
2021/06/12 03:16:03;;;;;;;1.20;0.65;;;21.00;99.90;;;;;;4447159;32;20373;-57
2021/06/12 03:18:29;;;;;;;0.45;0.45;;;21.00;99.90;;;;;;4420268;32;20170;-56
2021/06/12 03:20:57;;;;;;;0.70;0.55;;;21.10;99.90;;;;;;4434191;32;20048;-56
2021/06/12 03:23:25;;;;;;;0.75;0.75;;;21.00;99.90;;;;;;4447436;32;20073;-57
2021/06/12 03:25:51;;;;;;;0.37;0.37;;;21.00;99.90;;;;;;4446489;32;20479;-58
2021/06/12 03:28:18;;;;;;;0.40;0.40;;;21.00;99.90;;;;;;4446056;32;20065;-58
2021/06/12 03:30:43;;;;;;;0.47;0.35;;;21.10;99.90;;;;;;4432347;32;20077;-54
2021/06/12 03:33:09;;;;;;;0.80;0.50;;;21.10;99.90;;;;;;4438511;32;20065;-56
2021/06/12 03:35:36;;;;;;;0.52;0.52;;;21.00;99.90;;;;;;4432104;32;20069;-57
2021/06/12 03:38:02;;;;;;;0.30;0.30;;;20.90;99.90;;;;;;4431943;32;20068;-58
2021/06/12 03:40:28;;;;;;;0.40;0.40;;;20.90;99.90;;;;;;4429877;32;20073;-58
2021/06/12 03:42:55;;;;;;;0.40;0.40;;;20.90;99.90;;;;;;4403634;32;20070;-55
2021/06/12 03:45:22;;;;;;;0.37;0.37;;;21.00;99.90;;;;;;4417414;32;20065;-57
2021/06/12 03:47:49;;;;;;;0.30;0.30;;;20.90;99.90;;;;;;4430854;32;20123;-56
2021/06/12 03:50:16;;;;;;;0.60;0.60;;;20.80;99.90;;;;;;4403932;32;20061;-55
2021/06/12 03:52:43;;;;;;;0.40;0.40;;;20.80;99.90;;;;;;4404440;32;20128;-54
2021/06/12 03:55:10;;;;;;;0.30;0.30;;;20.80;99.90;;;;;;4431096;32;20065;-58
2021/06/12 03:57:37;;;;;;;0.73;0.50;;;20.80;99.90;;;;;;4416805;32;20068;-55
2021/06/12 04:00:05;;;;;;;0.20;0.20;;;20.80;99.90;;;;;;4430145;32;20085;-59
2021/06/12 04:02:31;;;;;;;0.93;0.68;;;20.70;99.90;;;;;;4416461;32;20094;-57
2021/06/12 04:04:57;;;;;;;0.70;0.60;;;20.60;99.90;;;;;;4417539;32;20061;-56
2021/06/12 04:07:24;;;;;;;1.90;0.50;;;20.70;99.90;;;;;;4430635;32;20073;-56
2021/06/12 04:09:49;;;;;;;0.20;0.20;;;20.70;99.90;;;;;;4430079;32;20064;-55
2021/06/12 04:12:15;;;;;;;0.50;0.50;;;20.60;99.90;;;;;;4431566;32;20498;-56
2021/06/12 04:14:41;;;;;;;1.58;0.90;;;20.60;99.90;;;;;;4436213;32;20069;-57
2021/06/12 04:17:07;;;;;;;1.17;0.95;;;20.60;99.90;;;;;;4446474;32;20060;-55
2021/06/12 04:19:32;;;;;;;0.37;0.37;;;20.60;99.90;;;;;;4446962;32;20167;-55
2021/06/12 04:21:58;;;;;;;0.65;0.60;;;20.60;99.90;;;;;;4432601;32;20073;-57
2021/06/12 04:24:23;;;;;;;0.52;0.52;;;20.60;99.90;;;;;;4446201;32;20053;-56
2021/06/12 04:26:49;;;;;;;0.30;0.30;;;20.60;99.90;;;;;;4432751;32;20176;-55
2021/06/12 04:29:15;;;;;;;0.55;0.47;;;20.70;99.90;;;;;;4444437;32;20060;-55
2021/06/12 04:31:40;;;;;;;1.45;0.85;;;20.70;99.90;;;;;;4431728;32;20167;-56
2021/06/12 04:34:06;;;;;;;0.55;0.50;;;20.80;99.90;;;;;;4433149;32;20109;-56
2021/06/12 04:36:31;;;;;;;0.45;0.45;;;20.70;99.90;;;;;;4431289;32;20073;-55
2021/06/12 04:38:58;;;;;;;2.15;0.73;;;20.60;99.90;;;;;;4430216;32;20124;-59
2021/06/12 04:41:23;;;;;;;0.50;0.50;;;20.60;99.90;;;;;;4431349;32;20069;-58
2021/06/12 04:43:49;;;;;;;0.40;0.40;;;20.70;99.90;;;;;;4429511;32;20534;-58
2021/06/12 04:46:14;;;;;;;0.40;0.40;;;20.70;99.90;;;;;;4417141;32;20069;-58
2021/06/12 04:48:40;;;;;;;0.43;0.43;;;20.70;99.90;;;;;;4429969;32;20061;-57
2021/06/12 04:51:06;;;;;;;0.40;0.40;;;20.70;99.90;;;;;;4417251;32;20065;-59
2021/06/12 04:53:32;;;;;;;0.40;0.40;;;20.70;99.90;;;;;;4416644;32;20417;-54
2021/06/12 04:55:59;;;;;;;0.45;0.40;;;20.70;99.90;;;;;;4430225;32;20089;-58
2021/06/12 04:58:24;;;;;;;0.50;0.50;;;20.70;99.90;;;;;;4414556;32;20077;-55
2021/06/12 05:00:51;;;;;;;0.40;0.40;;;20.80;99.90;;;;;;4416852;32;20061;-55
2021/06/12 05:03:19;;;;;;;0.60;0.60;;;20.70;99.90;;;;;;4416082;32;20086;-56
2021/06/12 05:05:45;;;;;;;1.45;0.50;;;20.70;99.90;;;;;;4416806;32;20065;-56
2021/06/12 05:08:10;;;;;;;0.20;0.20;;;20.70;99.90;;;;;;4430672;32;20126;-54
2021/06/12 05:10:36;;;;;;;0.40;0.40;;;20.80;99.90;;;;;;4429898;32;20065;-57
2021/06/12 05:13:02;;;;;;;0.30;0.30;;;20.90;99.90;;;;;;4425915;32;20116;-55
2021/06/12 05:15:29;;;;;;;0.90;0.80;;;20.90;99.90;;;;;;4445521;32;20061;-55
2021/06/12 05:17:56;;;;;;;0.28;0.28;;;21.00;99.90;;;;;;4445502;32;20420;-54
2021/06/12 05:20:24;;;;;;;0.68;0.68;;;20.90;99.90;;;;;;4432323;32;20521;-55
2021/06/12 05:22:50;;;;;;;3.85;0.60;;;20.90;99.90;;;;;;4445200;32;20601;-59
2021/06/12 05:25:16;;;;;;;0.20;0.20;;;21.00;99.90;;;;;;4430902;32;20076;-59
2021/06/12 05:27:41;;;;;;;0.30;0.30;;;21.10;99.90;;;;;;4432391;32;20064;-58
2021/06/12 05:30:07;;;;;;;0.60;0.60;;;21.20;99.90;;;;;;4444713;32;20077;-56
2021/06/12 05:32:33;;;;;;;0.35;0.35;;;21.30;99.90;;;;;;4440426;32;20130;-54
2021/06/12 05:35:00;;;;;;;0.45;0.45;;;21.30;99.90;;;;;;4429917;32;20065;-56
2021/06/12 05:37:25;;;;;;;0.30;0.30;;;21.40;99.90;;;;;;4416723;32;20064;-57
2021/06/12 05:39:51;;;;;;;0.30;0.30;;;21.30;99.90;;;;;;4402085;32;20069;-55
2021/06/12 05:42:16;;;;;;;0.55;0.55;;;21.40;99.90;;;;;;4415731;32;20082;-55
2021/06/12 05:44:42;;;;;;;0.52;0.32;;;21.50;99.90;;;;;;4427900;32;20086;-55
2021/06/12 05:47:07;;;;;;;0.45;0.43;;;21.50;99.90;;;;;;4429668;32;20085;-55
2021/06/12 05:49:33;;;;;;;0.55;0.55;;;21.50;99.90;;;;;;4429651;32;20120;-58
2021/06/12 05:51:58;;;;;;;0.40;0.40;;;21.40;99.90;;;;;;4430418;32;20061;-58
2021/06/12 05:54:24;;;;;;;0.30;0.30;;;21.30;99.90;;;;;;4429234;32;20526;-55
2021/06/12 05:56:49;;;;;;;0.43;0.43;;;21.30;99.90;;;;;;4429746;32;20077;-56
2021/06/12 05:59:15;;;;;;;0.22;0.22;;;21.20;99.90;;;;;;4429460;32;20127;-56
2021/06/12 06:01:40;;;;;;;0.65;0.47;;;21.20;99.90;;;;;;4428449;32;20511;-58
2021/06/12 06:04:06;;;;;;;0.22;0.22;;;21.20;99.90;;;;;;4430337;32;20068;-58
2021/06/12 06:06:31;;;;;;;0.30;0.30;;;21.30;99.90;;;;;;4430524;32;20081;-59
2021/06/12 06:08:57;;;;;;;0.47;0.40;;;21.20;99.90;;;;;;4429303;32;20090;-56
2021/06/12 06:11:22;;;;;;;0.20;0.20;;;21.20;99.90;;;;;;4429944;32;20349;-59
2021/06/12 06:13:48;;;;;;;0.30;0.30;;;21.10;99.90;;;;;;4424065;32;20077;-58
2021/06/12 06:16:14;;;;;;;0.20;0.20;;;21.10;99.90;;;;;;4419610;32;20082;-58
2021/06/12 06:18:40;;;;;;;0.37;0.37;;;21.10;99.90;;;;;;4405501;32;20066;-55
2021/06/12 06:21:07;;;;;;;0.40;0.40;;;21.10;99.90;;;;;;4406537;32;20057;-55
2021/06/12 06:23:32;;;;;;;0.30;0.30;;;20.90;99.90;;;;;;4419845;32;20074;-56
2021/06/12 06:25:59;;;;;;;1.10;0.40;;;20.80;99.90;;;;;;4392789;32;20479;-55
2021/06/12 06:28:24;;;;;;;0.28;0.28;;;20.80;99.90;;;;;;4404268;32;20488;-59
2021/06/12 06:30:50;;;;;;;0.30;0.30;;;20.80;99.90;;;;;;4419404;32;20152;-59
2021/06/12 06:33:16;;;;;;;0.13;0.13;;;20.70;99.90;;;;;;4413186;32;20065;-58
2021/06/12 06:35:41;;;;;;;0.20;0.20;;;20.80;99.90;;;;;;4421153;32;20116;-55
2021/06/12 06:38:07;;;;;;;0.37;0.37;;;20.90;99.90;;;;;;4407693;32;20069;-58
2021/06/12 06:40:32;;;;;;;1.52;0.20;;;21.00;99.90;;;;;;4419694;32;20105;-57
2021/06/12 06:42:58;;;;;;;0.20;0.20;;;21.00;99.90;;;;;;4433642;32;20069;-57
2021/06/12 06:45:23;;;;;;;0.45;0.45;;;20.90;99.90;;;;;;4434314;32;20085;-57
2021/06/12 06:47:50;;;;;;;5.05;1.48;;;20.90;99.90;;;;;;4421045;32;20561;-57
2021/06/12 06:50:16;;;;;;;0.40;0.40;;;20.90;99.90;;;;;;4420063;32;20065;-53
2021/06/12 06:52:43;;;;;;;1.08;0.50;;;21.00;99.90;;;;;;4420809;32;20081;-54
2021/06/12 06:55:10;;;;;;;0.22;0.22;;;21.00;99.90;;;;;;4421136;32;20056;-55
2021/06/12 06:57:37;;;;;;;0.52;0.50;;;21.10;99.90;;;;;;4433553;32;20436;-58
2021/06/12 07:00:05;;;;;;;0.20;0.20;;;21.10;99.90;;;;;;4434959;32;20061;-58
2021/06/12 07:02:30;;;;;;;0.25;0.25;;;21.00;99.90;;;;;;4433513;32;20068;-54
2021/06/12 07:04:56;;;;;;;0.30;0.30;;;21.10;99.90;;;;;;4420796;32;20556;-54
2021/06/12 07:07:21;;;;;;;0.30;0.30;;;21.10;99.90;;;;;;4421342;32;20066;-56
2021/06/12 07:09:47;;;;;;;0.40;0.40;;;21.20;99.90;;;;;;4432629;32;20061;-57
2021/06/12 07:12:13;;;;;;;0.43;0.30;;;21.20;99.90;;;;;;4433321;32;20069;-58
2021/06/12 07:14:40;;;;;;;0.32;0.32;;;21.30;99.90;;;;;;4428703;32;20436;-55
2021/06/12 07:17:06;;;;;;;0.40;0.40;;;21.30;99.90;;;;;;4434618;32;20068;-57
2021/06/12 07:19:31;;;;;;;0.43;0.35;;;21.40;99.90;;;;;;4434233;32;20445;-56
2021/06/12 07:21:57;;;;;;;0.77;0.32;;;21.40;99.90;;;;;;4434432;32;20068;-55
2021/06/12 07:24:22;;;;;;;0.20;0.20;;;21.30;99.90;;;;;;4432005;32;20381;-56
2021/06/12 07:26:48;;;;;;;0.98;0.50;;;21.20;99.90;;;;;;4431140;32;20066;-58
2021/06/12 07:29:14;;;;;;;0.40;0.40;;;21.10;99.90;;;;;;4416214;32;20112;-57
2021/06/12 07:31:41;;;;;;;0.62;0.40;;;21.20;99.90;;;;;;4416905;32;20081;-56
2021/06/12 07:34:08;;;;;;;0.90;0.35;;;21.20;99.90;;;;;;4401619;32;20065;-58
2021/06/12 07:36:33;;;;;;;2.40;0.93;;;21.40;99.90;;;;;;4414923;32;20188;-55
2021/06/12 07:38:59;;;;;;;0.22;0.22;;;21.40;99.90;;;;;;4415457;32;20089;-57
2021/06/12 07:41:25;;;;;;;0.30;0.30;;;21.40;99.90;;;;;;4415178;32;20070;-58
2021/06/12 07:43:51;;;;;;;0.40;0.40;;;21.20;99.90;;;;;;4401703;32;20066;-57
2021/06/12 07:46:17;;;;;;;1.77;0.50;;;21.20;99.90;;;;;;4401205;32;20065;-56
2021/06/12 07:48:42;;;;;;;0.28;0.28;;;21.20;99.90;;;;;;4401584;32;20519;-54
2021/06/12 07:51:08;;;;;;;0.30;0.30;;;21.20;99.90;;;;;;4415200;32;20137;-55
2021/06/12 07:53:34;;;;;;;0.43;0.40;;;21.20;99.90;;;;;;4415514;32;20065;-59
2021/06/12 07:55:59;;;;;;;0.50;0.50;;;21.20;99.90;;;;;;4414727;32;20470;-58
2021/06/12 07:58:25;;;;;;;0.98;0.47;;;21.20;99.90;;;;;;4403425;32;20129;-59
2021/06/12 08:00:51;;;;;;;0.88;0.50;;;21.30;99.90;;;;;;4416149;32;20065;-58
2021/06/12 08:03:16;;;;;;;0.25;0.25;;;21.40;99.90;;;;;;4400470;32;20069;-59
2021/06/12 08:05:42;;;;;;;0.50;0.50;;;21.40;99.90;;;;;;4416496;32;20069;-57
2021/06/12 08:08:07;;;;;;;0.30;0.30;;;21.50;99.90;;;;;;4402509;32;20073;-57
2021/06/12 08:10:33;;;;;;;0.82;0.82;;;21.50;99.90;;;;;;4414087;32;20131;-56
2021/06/12 08:12:58;;;;;;;0.70;0.70;;;21.40;99.90;;;;;;4415360;32;20070;-59
2021/06/12 08:15:24;;;;;;;0.95;0.85;;;21.30;99.90;;;;;;4432635;32;20115;-58
2021/06/12 08:17:50;;;;;;;0.40;0.40;;;21.20;99.90;;;;;;4445758;32;20073;-58
2021/06/12 08:20:16;;;;;;;0.47;0.40;;;21.20;99.90;;;;;;4446887;32;20412;-58
2021/06/12 08:22:41;;;;;;;0.90;0.65;;;21.20;99.90;;;;;;4432189;32;20060;-59
2021/06/12 08:25:09;;;;;;;1.48;0.65;;;21.20;99.90;;;;;;4446008;32;20081;-56
2021/06/12 08:27:35;;;;;;;0.30;0.30;;;21.20;99.90;;;;;;4431840;32;20526;-57
2021/06/12 08:30:01;;;;;;;0.77;0.50;;;21.30;99.90;;;;;;4445338;32;20057;-58
2021/06/12 08:32:26;;;;;;;0.40;0.40;;;21.30;99.90;;;;;;4442613;32;20073;-58
2021/06/12 08:34:52;;;;;;;1.20;0.45;;;21.40;99.90;;;;;;4417323;32;20065;-58
2021/06/12 08:37:17;;;;;;;0.50;0.50;;;21.40;99.90;;;;;;4430204;32;20069;-57
2021/06/12 08:39:43;;;;;;;0.47;0.47;;;21.40;99.90;;;;;;4428459;32;20119;-55
2021/06/12 08:42:08;;;;;;;9.75;0.40;;;21.40;99.90;;;;;;4430491;32;20530;-59
2021/06/12 08:44:35;;;;;;;0.30;0.30;;;21.50;99.90;;;;;;4429948;32;20160;-57
2021/06/12 08:47:00;;;;;;;0.40;0.40;;;21.60;99.90;;;;;;4429463;32;20131;-57
2021/06/12 08:49:26;;;;;;;0.52;0.40;;;21.60;99.90;;;;;;4415891;32;20080;-58
2021/06/12 08:51:52;;;;;;;0.30;0.30;;;21.70;99.90;;;;;;4429496;32;20131;-57
2021/06/12 08:54:20;;;;;;;4.95;0.57;;;21.70;99.90;;;;;;4429322;32;20694;-58
2021/06/12 08:56:47;;;;;;;8.00;1.02;;;21.70;99.90;;;;;;4416056;32;20108;-57
2021/06/12 08:59:13;;;;;;;0.40;0.40;;;21.80;99.90;;;;;;4416278;32;20379;-59
2021/06/12 09:01:40;;;;;;;7.57;0.40;;;21.80;99.90;;;;;;4428867;32;20533;-58
2021/06/12 09:04:06;;;;;;;0.45;0.43;;;21.70;99.90;;;;;;4415975;32;20083;-58
2021/06/12 09:06:31;;;;;;;0.43;0.43;;;21.80;99.90;;;;;;4416204;32;20419;-59
2021/06/12 09:08:58;;;;;;;0.43;0.37;;;21.70;99.90;;;;;;4415472;32;20081;-56
2021/06/12 09:11:24;;;;;;;0.35;0.30;;;21.60;99.90;;;;;;4429458;32;20502;-58
2021/06/12 09:13:57;;;;;;;0.30;0.30;;;21.60;99.90;;;;;;4429454;32;20065;-59
2021/06/12 09:16:27;;;;;;;2.37;0.85;;;21.60;99.90;;;;;;4446024;32;20518;-58
2021/06/12 09:18:55;;;;;;;0.37;0.30;;;21.60;99.90;;;;;;4445797;32;20089;-58
2021/06/12 09:21:38;;;;;;;0.50;0.50;;;21.30;99.90;;;;;;4445486;32;20588;-56
2021/06/12 09:24:07;;;;;;;0.43;0.43;;;21.20;99.90;;;;;;4431368;32;20097;-59
2021/06/12 09:26:51;;;;;;;3.60;1.00;;;21.10;99.90;;;;;;4418282;32;20056;-56
2021/06/12 09:29:19;;;;;;;0.57;0.45;;;21.10;99.90;;;;;;4444066;32;20361;-59
2021/06/12 09:31:50;;;;;;;0.98;0.40;;;21.00;99.90;;;;;;4398708;32;20535;-57
2021/06/12 09:34:19;;;;;;;0.45;0.40;;;21.00;99.90;;;;;;4427437;32;20316;-55
2021/06/12 09:36:45;;;;;;;0.30;0.30;;;20.90;99.90;;;;;;4417631;32;20086;-58
2021/06/12 09:39:17;;;;;;;1.50;0.62;;;20.90;99.90;;;;;;4405198;32;20409;-55
2021/06/12 09:41:46;;;;;;;0.52;0.52;;;20.80;99.90;;;;;;4408853;32;76762;-57
2021/06/12 09:44:27;;;;;;;0.50;0.45;;;20.80;99.90;;;;;;4399010;32;20137;-57
2021/06/12 09:46:52;;;;;;;0.45;0.40;;;20.80;99.90;;;;;;4401688;32;20062;-59
2021/06/12 09:49:30;;;;;;;1.12;0.68;;;20.90;99.90;;;;;;4413990;32;20158;-57
2021/06/12 09:52:13;;;;;;;0.30;0.30;;;20.90;99.90;;;;;;4404274;32;20419;-57
2021/06/12 09:54:42;;;;;;;0.28;0.28;;;21.00;99.90;;;;;;4413450;32;20435;-56
2021/06/12 09:57:08;;;;;;;0.32;0.32;;;21.00;99.90;;;;;;4410478;32;20069;-56
2021/06/12 09:59:40;;;;;;;0.40;0.40;;;21.20;99.90;;;;;;4406598;32;20101;-60
2021/06/12 10:02:05;;;;;;;0.45;0.45;;;21.20;99.90;;;;;;4403097;32;20081;-55
2021/06/12 10:04:32;;;;;;;0.20;0.20;;;21.10;99.90;;;;;;4406799;32;20061;-59
2021/06/12 10:06:58;;;;;;;1.85;0.65;;;21.10;99.90;;;;;;4417875;32;20069;-58
2021/06/12 10:09:24;;;;;;;0.30;0.30;;;21.10;99.90;;;;;;4387488;32;20442;-55
2021/06/12 10:11:50;;;;;;;0.57;0.43;;;21.10;99.90;;;;;;4415006;32;20480;-57
2021/06/12 10:14:17;;;;;;;1.20;0.60;;;21.10;99.90;;;;;;4405930;32;20077;-59
2021/06/12 10:16:44;;;;;;;0.30;0.30;;;21.20;99.90;;;;;;4410751;32;20531;-58
2021/06/12 10:19:13;;;;;;;2.55;0.55;;;21.20;99.90;;;;;;4400482;32;20070;-58
2021/06/12 10:21:39;;;;;;;0.35;0.35;;;21.20;99.90;;;;;;4413604;32;20118;-57
2021/06/12 10:24:06;;;;;;;0.20;0.20;;;21.30;99.90;;;;;;4426281;32;20477;-57
2021/06/12 10:26:32;;;;;;;0.40;0.40;;;21.20;99.90;;;;;;4414553;32;20123;-56
2021/06/12 10:28:58;;;;;;;0.73;0.60;;;21.30;99.90;;;;;;4414160;32;20069;-59
2021/06/12 10:31:25;;;;;;;2.17;0.73;;;21.20;99.90;;;;;;4414094;32;20066;-59
2021/06/12 10:33:53;;;;;;;1.60;0.65;;;21.30;99.90;;;;;;4411976;32;20068;-57
2021/06/12 10:36:25;;;;;;;2.28;0.40;;;21.40;99.90;;;;;;4427582;32;20112;-59
2021/06/12 10:38:51;;;;;;;0.30;0.30;;;21.40;99.90;;;;;;4411474;32;20074;-59
2021/06/12 10:41:19;;;;;;;0.85;0.62;;;21.60;99.90;;;;;;4421234;32;20074;-59
2021/06/12 10:43:46;;;;;;;0.65;0.50;;;21.70;99.90;;;;;;4399662;32;20095;-57
2021/06/12 10:46:15;;;;;;;3.20;0.80;;;22.10;99.90;;;;;;4401583;32;20074;-60
2021/06/12 10:48:45;;;;;;;0.30;0.30;;;22.50;99.90;;;;;;4426404;32;20428;-56
2021/06/12 10:51:14;;;;;;;1.48;0.40;;;23.00;99.90;;;;;;4422515;32;20061;-58
2021/06/12 10:53:42;;;;;;;2.12;0.98;;;23.10;99.90;;;;;;4415035;32;20073;-58
2021/06/12 10:56:11;;;;;;;0.30;0.30;;;22.80;99.90;;;;;;4413902;32;20057;-58
2021/06/12 10:58:39;;;;;;;0.52;0.30;;;22.90;99.90;;;;;;4394715;32;20070;-59
2021/06/12 11:01:08;;;;;;;0.35;0.28;;;22.80;99.90;;;;;;4423900;32;20073;-60
2021/06/12 11:07:05;;;;;;;0.20;0.20;;;22.50;99.90;;;;;;4416970;32;20081;-59
2021/06/12 11:09:17;;;;;;;0.20;0.20;;;22.50;99.90;;;;;;4419218;32;20073;-58
2021/06/12 11:11:45;;;;;;;0.37;0.37;;;22.60;99.90;;;;;;4426772;32;20503;-57
2021/06/12 11:14:29;;;;;;;0.30;0.30;;;22.70;99.90;;;;;;4421071;32;20573;-56
2021/06/12 11:17:13;;;;;;;0.40;0.40;;;22.90;99.90;;;;;;4403507;32;20571;-55
2021/06/12 11:19:42;;;;;;;0.55;0.50;;;23.10;99.90;;;;;;4414895;32;20070;-55
2021/06/12 11:22:25;;;;;;;0.90;0.40;;;23.10;99.90;;;;;;4404795;32;20445;-58
2021/06/12 11:24:55;;;;;;;2.40;0.62;;;23.20;99.90;;;;;;4415837;32;20065;-56
2021/06/12 11:27:32;;;;;;;2.27;0.77;;;23.10;99.90;;;;;;4416064;32;20074;-58
2021/06/12 11:30:20;;;;;;;0.50;0.50;;;23.00;99.90;;;;;;4413915;32;20057;-55
2021/06/12 11:32:49;;;;;;;1.27;0.30;;;22.80;99.90;;;;;;4418632;32;20444;-56
2021/06/12 11:35:39;;;;;;;0.20;0.20;;;22.70;99.90;;;;;;4430249;32;20655;-54
2021/06/12 11:38:07;;;;;;;0.30;0.30;;;22.50;99.90;;;;;;4407929;32;20086;-55
2021/06/12 11:40:33;;;;;;;0.40;0.40;;;22.50;99.90;;;;;;4401768;32;20527;-57
2021/06/12 11:42:59;;;;;;;0.93;0.60;;;22.50;99.90;;;;;;4408533;32;20089;-55
2021/06/12 11:45:28;;;;;;;0.30;0.30;;;22.50;99.90;;;;;;4397799;32;20135;-58
2021/06/12 11:47:55;;;;;;;0.20;0.20;;;22.50;99.90;;;;;;4429572;32;20069;-58
2021/06/12 11:50:27;;;;;;;0.32;0.30;;;22.40;99.90;;;;;;4428212;32;20180;-58
2021/06/12 11:52:53;;;;;;;0.30;0.30;;;22.40;99.90;;;;;;4418304;32;20611;-59
2021/06/12 11:55:22;;;;;;;0.20;0.20;;;22.40;99.90;;;;;;4409404;32;20069;-56
2021/06/12 11:57:50;;;;;;;0.30;0.30;;;22.40;99.90;;;;;;4391684;32;20566;-59
2021/06/12 12:00:34;;;;;;;0.98;0.30;;;22.50;99.90;;;;;;4418752;32;20081;-56
2021/06/12 12:03:10;;;;;;;0.40;0.40;;;22.70;99.90;;;;;;4402415;32;20134;-58
2021/06/12 12:05:40;;;;;;;0.30;0.30;;;22.90;99.50;;;;;;4420311;32;20053;-55
2021/06/12 12:08:09;;;;;;;0.57;0.40;;;22.90;99.60;;;;;;4428267;32;20431;-58
2021/06/12 12:10:35;;;;;;;0.17;0.17;;;22.90;99.70;;;;;;4397103;32;20084;-55
2021/06/12 12:13:01;;;;;;;0.30;0.30;;;22.80;99.50;;;;;;4413328;32;20089;-57
2021/06/12 12:15:43;;;;;;;0.30;0.30;;;22.70;99.20;;;;;;4402761;32;20062;-57
2021/06/12 12:18:11;;;;;;;0.35;0.35;;;22.40;99.60;;;;;;4403357;32;20058;-55
2021/06/12 12:20:47;;;;;;;0.90;0.62;;;22.30;99.80;;;;;;4415583;32;20413;-57
2021/06/12 12:23:30;;;;;;;0.10;0.10;;;22.20;99.70;;;;;;4413875;32;20057;-58
2021/06/12 12:26:14;;;;;;;0.65;0.50;;;22.10;99.90;;;;;;4401460;32;20066;-56
2021/06/12 12:29:05;;;;;;;0.40;0.40;;;22.00;99.90;;;;;;4428045;32;20057;-57
2021/06/12 12:31:33;;;;;;;2.72;0.90;;;21.50;99.90;;;;;;4419113;32;20074;-56
2021/06/12 12:34:00;;;;;;;0.30;0.30;;;20.90;99.90;;;;;;4424934;32;20085;-58
2021/06/12 12:36:27;;;;;;;0.20;0.20;;;20.30;99.90;;;;;;4416011;32;20046;-55
2021/06/12 12:38:56;;;;;;;1.02;0.82;;;20.00;99.90;;;;;;4423058;32;20136;-58
2021/06/12 12:41:22;;;;;;;1.02;0.40;;;19.40;99.90;;;;;;4424705;32;20065;-58
2021/06/12 12:43:48;;;;;;;0.40;0.40;;;19.10;99.90;;;;;;4425395;32;20069;-56
2021/06/12 12:46:13;;;;;;;0.73;0.30;;;18.90;99.90;;;;;;4401233;32;20062;-58
2021/06/12 12:48:41;;;;;;;18.85;1.45;;;18.40;99.90;;;;;;4402856;32;20077;-56
2021/06/12 12:51:07;;;;;;;0.30;0.30;;;18.40;99.90;;;;;;4417104;32;20075;-56
2021/06/12 12:53:41;;;;;;;0.30;0.30;;;18.10;99.90;;;;;;4418569;32;20062;-56